Time;durP1;ratioP1;P1;durP2;ratioP2;P2;SDS_P1;SDS_P2;PMS_P1;PMS_P2;Temp;Humidity;BMP_temperature;BMP_pressure;BME280_temperature;BME280_humidity;BME280_pressure;Samples;Min_cycle;Max_cycle;Signal;HPM_P1;HPM_P2
2021/12/01 00:00:27;;;;;;;2.47;0.87;;;;;;;12.78;49.98;99483.34;5156749;27;20196;-72
2021/12/01 00:02:53;;;;;;;1.83;1.20;;;;;;;12.65;50.06;99482.66;5155640;27;20553;-71
2021/12/01 00:05:20;;;;;;;2.90;1.00;;;;;;;13.11;50.22;99493.03;5156788;27;20582;-72
2021/12/01 00:07:46;;;;;;;4.20;0.90;;;;;;;13.00;50.00;99474.34;5138197;27;20164;-72
2021/12/01 00:10:11;;;;;;;2.30;1.33;;;;;;;13.18;49.31;99466.63;5156603;27;20179;-71
2021/12/01 00:12:36;;;;;;;3.33;1.03;;;;;;;13.63;48.49;99469.84;5156320;27;20591;-72
2021/12/01 00:15:04;;;;;;;2.47;1.07;;;;;;;13.58;49.27;99480.13;5156574;27;20207;-72
2021/12/01 00:17:29;;;;;;;4.37;1.07;;;;;;;13.18;49.40;99469.28;5155256;27;20207;-72
2021/12/01 00:19:55;;;;;;;8.63;1.07;;;;;;;13.00;49.87;99470.81;5156469;27;20169;-72
2021/12/01 00:22:20;;;;;;;2.83;1.30;;;;;;;12.79;50.43;99487.72;5156947;27;20528;-72
2021/12/01 00:24:45;;;;;;;1.67;1.20;;;;;;;13.05;49.88;99461.44;5156232;27;20189;-72
2021/12/01 00:27:11;;;;;;;2.63;1.10;;;;;;;13.06;50.23;99471.16;5156236;27;20168;-72
2021/12/01 00:29:37;;;;;;;5.57;1.10;;;;;;;12.86;50.31;99471.97;5155007;27;20169;-72
2021/12/01 00:32:03;;;;;;;4.50;1.27;;;;;;;12.70;51.16;99483.13;5156437;27;20180;-72
2021/12/01 00:34:29;;;;;;;3.33;0.93;;;;;;;12.79;51.18;99460.09;5153787;27;20240;-72
2021/12/01 00:36:54;;;;;;;1.00;0.80;;;;;;;12.43;51.33;99459.47;5156099;27;20304;-72
2021/12/01 00:39:19;;;;;;;2.87;1.10;;;;;;;12.84;51.35;99460.53;5155802;27;20291;-71
2021/12/01 00:41:47;;;;;;;3.27;1.13;;;;;;;13.08;50.56;99466.53;5155810;27;20184;-72
2021/12/01 00:44:12;;;;;;;4.10;0.93;;;;;;;12.76;51.35;99474.56;5155910;27;20180;-72
2021/12/01 00:46:45;;;;;;;3.40;1.43;;;;;;;13.17;50.91;99462.25;5137163;27;20263;-72
2021/12/01 00:49:10;;;;;;;2.20;0.93;;;;;;;13.33;50.58;99467.97;5158593;27;20157;-72
2021/12/01 00:51:36;;;;;;;3.80;1.03;;;;;;;12.69;51.14;99468.03;5155745;27;20748;-70
2021/12/01 00:54:01;;;;;;;5.03;1.37;;;;;;;12.87;50.97;99470.16;5156068;27;20200;-71
2021/12/01 00:56:26;;;;;;;3.50;1.10;;;;;;;11.85;53.65;99492.75;5156891;27;20177;-71
2021/12/01 00:58:52;;;;;;;4.07;0.90;;;;;;;12.04;53.13;99478.75;5156190;27;20191;-71
2021/12/01 01:01:17;;;;;;;1.80;1.03;;;;;;;12.27;52.80;99482.28;5156194;27;20184;-71
2021/12/01 01:03:43;;;;;;;6.03;1.27;;;;;;;11.35;55.11;99477.97;5156124;27;20180;-71
2021/12/01 01:06:09;;;;;;;4.40;1.33;;;;;;;12.21;53.31;99475.56;5154741;27;20175;-71
2021/12/01 01:08:34;;;;;;;3.73;1.30;;;;;;;12.02;53.08;99467.34;5155653;27;20176;-71
2021/12/01 01:16:22;;;;;;;4.13;1.50;;;;;;;12.43;52.21;99448.78;5154712;27;20240;-71
2021/12/01 01:18:53;;;;;;;4.07;1.30;;;;;;;12.72;52.67;99451.72;5139113;27;20180;-71
2021/12/01 01:21:18;;;;;;;5.13;1.00;;;;;;;12.43;52.91;99455.97;5155674;27;20209;-71
2021/12/01 01:23:44;;;;;;;4.63;1.20;;;;;;;12.81;52.04;99458.13;5154986;27;20200;-71
2021/12/01 01:26:14;;;;;;;1.87;0.90;;;;;;;12.83;52.64;99451.66;5155274;27;20188;-71
2021/12/01 01:28:40;;;;;;;2.47;1.27;;;;;;;12.10;53.73;99462.22;5153898;27;20179;-71
2021/12/01 01:31:05;;;;;;;5.43;1.23;;;;;;;12.12;54.21;99446.91;5153961;27;20334;-71
2021/12/01 01:33:31;;;;;;;3.63;1.20;;;;;;;12.38;52.54;99442.97;5155217;27;20282;-71
2021/12/01 01:35:56;;;;;;;3.83;1.23;;;;;;;12.73;52.26;99425.81;5153978;27;20179;-71
2021/12/01 01:38:22;;;;;;;3.17;1.00;;;;;;;13.16;51.39;99428.34;5154104;27;20172;-71
2021/12/01 01:40:47;;;;;;;5.47;1.47;;;;;;;12.56;52.96;99411.13;5153875;27;20191;-73
2021/12/01 01:43:13;;;;;;;1.33;0.90;;;;;;;12.66;52.27;99414.75;5155879;27;20196;-70
2021/12/01 01:45:38;;;;;;;3.00;1.43;;;;;;;12.62;52.30;99405.25;5153846;27;20172;-72
2021/12/01 01:48:09;;;;;;;2.70;1.00;;;;;;;13.03;51.80;99406.28;5153890;27;20183;-71
2021/12/01 01:50:38;;;;;;;3.57;1.00;;;;;;;11.78;53.25;99400.66;5155240;27;20188;-72
2021/12/01 01:53:06;;;;;;;7.40;1.07;;;;;;;11.45;54.84;99402.31;5154945;27;20276;-71
2021/12/01 01:55:32;;;;;;;3.63;1.13;;;;;;;11.91;53.72;99401.38;5153983;27;20530;-71
2021/12/01 01:57:58;;;;;;;3.60;1.33;;;;;;;9.63;57.61;99395.66;5154905;27;20252;-71
2021/12/01 02:00:23;;;;;;;2.30;1.23;;;;;;;10.86;55.09;99381.16;5155143;27;20208;-71
2021/12/01 02:02:50;;;;;;;3.23;1.13;;;;;;;10.62;55.79;99388.34;5153661;27;20167;-72
2021/12/01 02:05:15;;;;;;;5.33;1.33;;;;;;;12.22;53.20;99383.66;5155173;27;20263;-71
2021/12/01 02:07:42;;;;;;;4.93;1.40;;;;;;;11.49;53.97;99382.41;5154880;27;20195;-71
2021/12/01 02:10:08;;;;;;;3.97;1.10;;;;;;;10.78;55.56;99386.22;5153677;27;20186;-72
2021/12/01 02:12:33;;;;;;;6.03;1.60;;;;;;;10.86;54.27;99377.63;5155051;27;20212;-72
2021/12/01 02:14:58;;;;;;;7.60;2.43;;;;;;;10.69;55.19;99388.72;5153417;27;20196;-71
2021/12/01 02:17:24;;;;;;;5.10;1.30;;;;;;;10.74;54.97;99366.06;5154845;27;20169;-71
2021/12/01 02:19:53;;;;;;;4.33;1.00;;;;;;;10.70;54.97;99348.59;5154629;27;20184;-71
2021/12/01 02:22:18;;;;;;;5.27;1.43;;;;;;;11.03;55.28;99354.94;5155053;27;20176;-71
2021/12/01 02:24:46;;;;;;;4.17;1.43;;;;;;;12.43;52.58;99352.44;5154876;27;20192;-70
2021/12/01 02:27:13;;;;;;;4.87;1.23;;;;;;;10.89;55.81;99351.53;5154681;27;20168;-70
2021/12/01 02:29:38;;;;;;;4.03;1.30;;;;;;;11.59;54.18;99343.31;5136100;27;20168;-70
2021/12/01 02:32:04;;;;;;;3.10;1.47;;;;;;;10.99;54.99;99338.31;5154516;27;20176;-71
2021/12/01 02:34:31;;;;;;;5.73;1.07;;;;;;;11.61;53.80;99329.81;5154234;27;20212;-71
2021/12/01 02:36:58;;;;;;;5.40;1.27;;;;;;;11.96;52.94;99326.13;5154462;27;20172;-72
2021/12/01 02:39:24;;;;;;;8.50;1.30;;;;;;;12.09;53.10;99319.63;5153943;27;20579;-71
2021/12/01 02:41:58;;;;;;;4.13;1.20;;;;;;;11.47;54.05;99306.03;5154475;27;20188;-71
2021/12/01 02:44:24;;;;;;;4.13;1.30;;;;;;;11.20;54.04;99307.28;5154211;27;20199;-71
2021/12/01 02:46:49;;;;;;;7.30;1.20;;;;;;;10.59;55.19;99305.88;5153272;27;20217;-70
2021/12/01 02:49:23;;;;;;;6.27;1.20;;;;;;;11.83;52.79;99284.34;5153009;27;20164;-71
2021/12/01 02:51:49;;;;;;;2.27;1.20;;;;;;;11.19;53.89;99283.38;5154599;27;20164;-71
2021/12/01 02:54:15;;;;;;;6.83;1.40;;;;;;;11.43;53.85;99275.19;5153059;27;20208;-71
2021/12/01 02:56:44;;;;;;;4.50;1.10;;;;;;;11.99;53.16;99278.59;5156060;27;20172;-71
2021/12/01 02:59:10;;;;;;;9.03;1.67;;;;;;;11.75;52.74;99267.22;5157057;27;20629;-71
2021/12/01 03:01:35;;;;;;;6.93;1.17;;;;;;;11.27;52.99;99252.41;5156619;27;20187;-71
2021/12/01 03:04:01;;;;;;;4.87;1.27;;;;;;;11.93;52.70;99262.22;5157822;27;20226;-71
2021/12/01 03:06:27;;;;;;;3.67;1.40;;;;;;;10.72;54.87;99261.25;5139289;27;20187;-71
2021/12/01 03:08:53;;;;;;;9.37;1.73;;;;;;;11.26;53.17;99242.69;5156741;27;20172;-71
2021/12/01 03:11:18;;;;;;;3.97;1.37;;;;;;;12.47;52.22;99254.88;5156652;27;20191;-71
2021/12/01 03:13:44;;;;;;;6.70;1.97;;;;;;;12.59;50.50;99226.19;5157487;27;20212;-71
2021/12/01 03:16:09;;;;;;;3.80;2.00;;;;;;;12.27;51.99;99230.81;5156345;27;20216;-70
2021/12/01 03:18:34;;;;;;;3.70;1.50;;;;;;;12.24;51.44;99220.34;5156946;27;20279;-70
2021/12/01 03:21:00;;;;;;;6.87;1.53;;;;;;;12.51;51.45;99220.66;5157575;27;20541;-70
2021/12/01 03:23:26;;;;;;;5.70;1.33;;;;;;;12.37;51.78;99221.88;5157266;27;20275;-71
2021/12/01 03:25:52;;;;;;;7.47;1.53;;;;;;;11.53;52.69;99223.56;5157874;27;20232;-71
2021/12/01 03:28:18;;;;;;;3.67;1.50;;;;;;;12.10;52.65;99227.72;5156601;27;20210;-71
2021/12/01 03:30:44;;;;;;;8.20;1.40;;;;;;;12.20;51.26;99203.72;5156357;27;20172;-71
2021/12/01 03:33:12;;;;;;;4.07;1.27;;;;;;;11.74;53.19;99215.59;5157341;27;20211;-70
2021/12/01 03:35:38;;;;;;;4.60;1.40;;;;;;;11.67;53.39;99205.53;5156035;27;20183;-71
2021/12/01 03:38:04;;;;;;;6.93;2.03;;;;;;;10.74;54.78;99205.94;5156396;27;20191;-71
2021/12/01 03:40:29;;;;;;;7.23;1.37;;;;;;;10.37;56.08;99197.31;5156025;27;20630;-71
2021/12/01 03:42:55;;;;;;;4.97;2.13;;;;;;;9.96;55.85;99189.81;5157462;27;20561;-71
2021/12/01 03:45:20;;;;;;;5.30;1.23;;;;;;;10.19;56.12;99180.91;5156267;27;20179;-72
2021/12/01 03:47:46;;;;;;;4.03;1.10;;;;;;;10.71;54.36;99168.84;5157403;27;20698;-71
2021/12/01 03:50:11;;;;;;;6.20;1.43;;;;;;;10.97;54.97;99180.09;5157267;27;20196;-70
2021/12/01 03:52:37;;;;;;;6.17;1.40;;;;;;;10.47;55.81;99176.97;5157709;27;20199;-71
2021/12/01 03:55:04;;;;;;;7.73;1.60;;;;;;;11.12;54.15;99162.81;5155811;27;20640;-71
2021/12/01 03:57:29;;;;;;;7.27;2.10;;;;;;;10.37;54.88;99146.63;5155503;27;20220;-72
2021/12/01 03:59:54;;;;;;;12.37;1.67;;;;;;;10.51;55.85;99143.75;5157433;27;20172;-72
2021/12/01 04:02:20;;;;;;;8.83;1.80;;;;;;;10.20;55.42;99131.09;5156956;27;20172;-70
2021/12/01 04:04:45;;;;;;;6.30;1.87;;;;;;;10.14;55.77;99134.25;5155673;27;20192;-71
2021/12/01 04:07:10;;;;;;;10.90;2.00;;;;;;;11.42;53.74;99131.91;5157209;27;20180;-71
2021/12/01 04:09:38;;;;;;;4.50;1.50;;;;;;;10.91;54.94;99141.41;5156694;27;20173;-70
2021/12/01 04:12:04;;;;;;;8.53;1.83;;;;;;;12.08;53.45;99141.44;5156935;27;20195;-71
2021/12/01 04:14:29;;;;;;;3.43;1.60;;;;;;;11.45;52.93;99121.81;5156649;27;20610;-70
2021/12/01 04:16:55;;;;;;;3.53;1.27;;;;;;;11.16;54.39;99120.72;5157126;27;20187;-71
2021/12/01 04:19:20;;;;;;;4.13;1.40;;;;;;;11.23;53.81;99127.25;5155386;27;20598;-71
2021/12/01 04:21:45;;;;;;;9.13;2.00;;;;;;;10.63;55.36;99133.91;5156589;27;20172;-71
2021/12/01 04:24:12;;;;;;;6.10;1.30;;;;;;;11.35;53.47;99112.88;5156393;27;20240;-71
2021/12/01 04:26:37;;;;;;;5.40;1.93;;;;;;;10.02;55.53;99120.88;5155382;27;20217;-71
2021/12/01 04:29:04;;;;;;;6.10;1.83;;;;;;;11.23;54.70;99122.75;5156061;27;20172;-71
2021/12/01 04:31:32;;;;;;;6.33;1.47;;;;;;;11.03;54.52;99117.34;5155092;27;20266;-71
2021/12/01 04:33:58;;;;;;;6.57;1.70;;;;;;;10.46;56.15;99108.59;5137376;27;20677;-71
2021/12/01 04:36:27;;;;;;;5.43;1.73;;;;;;;9.52;58.04;99092.81;5154821;27;20165;-71
2021/12/01 04:38:53;;;;;;;8.93;1.93;;;;;;;10.91;56.39;99098.69;5155490;27;20179;-71
2021/12/01 04:41:19;;;;;;;10.07;1.77;;;;;;;10.12;55.98;99086.38;5154753;27;20180;-72
2021/12/01 04:43:46;;;;;;;7.20;1.67;;;;;;;9.37;58.49;99088.66;5154665;27;20204;-71
2021/12/01 04:46:16;;;;;;;6.90;1.57;;;;;;;10.25;58.04;99086.28;5156040;27;20185;-71
2021/12/01 04:48:41;;;;;;;12.40;1.83;;;;;;;10.17;57.34;99078.00;5154800;27;20629;-72
2021/12/01 04:51:06;;;;;;;10.47;2.17;;;;;;;10.08;57.48;99082.25;5155943;27;20180;-72
2021/12/01 04:53:32;;;;;;;9.93;2.50;;;;;;;10.96;56.51;99077.81;5155791;27;20204;-71
2021/12/01 04:55:58;;;;;;;5.77;1.53;;;;;;;9.62;61.03;99088.47;5155052;27;20180;-72
2021/12/01 04:58:23;;;;;;;14.53;2.37;;;;;;;9.31;61.28;99078.47;5156668;27;20176;-71
2021/12/01 05:00:48;;;;;;;9.10;1.87;;;;;;;9.85;59.32;99072.53;5155781;27;20168;-71
2021/12/01 05:03:14;;;;;;;9.43;1.70;;;;;;;11.37;56.91;99065.50;5157069;27;20652;-71
2021/12/01 05:05:39;;;;;;;19.53;2.37;;;;;;;10.91;56.98;99050.66;5163733;27;20177;-71
2021/12/01 05:08:04;;;;;;;13.23;3.40;;;;;;;10.42;58.43;99045.81;5167416;27;20176;-71
2021/12/01 05:10:30;;;;;;;13.23;3.10;;;;;;;11.64;56.74;99035.63;5166905;27;20172;-72
2021/12/01 05:12:55;;;;;;;17.23;2.40;;;;;;;10.70;58.69;99040.88;5162300;27;20198;-72
2021/12/01 05:15:21;;;;;;;10.53;2.23;;;;;;;10.76;58.68;99027.88;5163741;27;20252;-72
2021/12/01 05:17:46;;;;;;;8.60;2.17;;;;;;;11.25;58.64;99031.84;5163515;27;20187;-71
2021/12/01 05:20:12;;;;;;;19.57;3.07;;;;;;;11.71;57.26;99025.25;5159938;27;20189;-71
2021/12/01 05:22:38;;;;;;;7.17;2.30;;;;;;;11.63;56.38;99014.38;5155860;27;20172;-71
2021/12/01 05:25:03;;;;;;;13.17;2.80;;;;;;;11.47;57.13;99004.97;5155075;27;20224;-71
2021/12/01 05:27:29;;;;;;;12.60;2.80;;;;;;;9.69;61.96;99025.78;5153895;27;20168;-71
2021/12/01 05:29:54;;;;;;;12.67;2.87;;;;;;;11.01;59.59;99000.00;5155278;27;20180;-70
2021/12/01 05:32:20;;;;;;;14.43;3.10;;;;;;;11.44;59.80;99001.72;5155457;27;20581;-71
2021/12/01 05:34:46;;;;;;;11.93;3.00;;;;;;;10.71;61.51;98991.88;5155295;27;20192;-72
2021/12/01 05:37:11;;;;;;;11.27;2.37;;;;;;;9.98;66.06;98980.84;5155965;27;20694;-71
2021/12/01 05:39:41;;;;;;;14.63;3.57;;;;;;;11.44;60.38;98957.16;5155907;27;20267;-70
2021/12/01 05:42:06;;;;;;;16.27;3.23;;;;;;;11.03;59.80;98962.50;5155121;27;20191;-71
2021/12/01 05:44:32;;;;;;;12.83;2.80;;;;;;;11.22;59.27;98947.50;5155250;27;20192;-70
2021/12/01 05:46:57;;;;;;;13.07;2.77;;;;;;;11.62;57.45;98927.19;5155036;27;20545;-71
2021/12/01 05:49:22;;;;;;;8.13;2.10;;;;;;;10.20;60.78;98929.34;5155249;27;20187;-71
2021/12/01 05:51:48;;;;;;;9.63;2.20;;;;;;;11.36;58.32;98918.75;5154935;27;20562;-71
2021/12/01 05:54:13;;;;;;;6.80;2.00;;;;;;;11.27;58.51;98907.03;5155230;27;20280;-70
2021/12/01 05:56:38;;;;;;;14.03;2.27;;;;;;;12.47;56.79;98914.22;5134567;22;20230;-67
2021/12/01 05:59:04;;;;;;;12.17;2.60;;;;;;;11.40;59.27;98899.66;5094412;28;20605;-74
2021/12/01 06:01:29;;;;;;;11.30;2.13;;;;;;;11.13;59.03;98891.34;5080943;28;20254;-74
2021/12/01 06:03:54;;;;;;;7.50;2.17;;;;;;;12.09;57.97;98886.41;5098362;28;20174;-74
2021/12/01 06:06:19;;;;;;;9.70;2.47;;;;;;;11.46;58.30;98872.38;5112834;28;20193;-74
2021/12/01 06:08:45;;;;;;;13.70;2.77;;;;;;;11.72;58.74;98861.25;5116160;28;20177;-74
2021/12/01 06:11:10;;;;;;;17.77;2.37;;;;;;;12.39;57.58;98871.25;5114136;28;20205;-74
2021/12/01 06:13:40;;;;;;;10.07;2.60;;;;;;;11.91;58.31;98866.69;5098788;28;20244;-73
2021/12/01 06:16:06;;;;;;;12.70;2.57;;;;;;;11.05;59.09;98841.28;5116370;28;20194;-75
2021/12/01 06:18:31;;;;;;;8.93;2.80;;;;;;;11.25;60.05;98845.75;5114992;28;20189;-73
2021/12/01 06:20:57;;;;;;;10.03;2.13;;;;;;;10.66;61.51;98837.53;5112897;28;20177;-74
2021/12/01 06:23:23;;;;;;;12.37;2.53;;;;;;;11.66;59.89;98837.75;5112275;28;20188;-75
2021/12/01 06:25:48;;;;;;;11.07;2.87;;;;;;;10.51;61.41;98831.66;5095186;28;20195;-75
2021/12/01 06:28:14;;;;;;;14.13;3.10;;;;;;;11.04;61.30;98817.38;5112110;28;20179;-76
2021/12/01 06:30:39;;;;;;;14.90;2.27;;;;;;;11.76;59.20;98798.53;5095421;28;20218;-75
2021/12/01 06:33:05;;;;;;;9.17;2.13;;;;;;;13.17;57.11;98795.22;5115560;28;20592;-75
2021/12/01 06:35:30;;;;;;;16.57;2.50;;;;;;;13.20;55.87;98789.56;5116218;28;20197;-75
2021/12/01 06:37:56;;;;;;;12.43;2.33;;;;;;;11.87;58.92;98790.41;5116285;28;20262;-75
2021/12/01 06:40:23;;;;;;;17.03;2.87;;;;;;;12.47;57.85;98783.94;5099211;28;20503;-76
2021/12/01 06:42:48;;;;;;;13.67;2.37;;;;;;;12.03;59.59;98779.19;5116271;28;20162;-77
2021/12/01 06:45:16;;;;;;;19.40;3.40;;;;;;;12.37;58.67;98756.38;5099021;28;20194;-75
2021/12/01 06:47:41;;;;;;;13.40;2.33;;;;;;;13.23;57.42;98742.91;5121867;28;20227;-76
2021/12/01 06:50:08;;;;;;;7.53;1.90;;;;;;;12.85;58.54;98742.03;5111587;28;20177;-76
2021/12/01 06:52:33;;;;;;;11.97;2.17;;;;;;;12.39;57.89;98727.66;5125859;28;20180;-75
2021/12/01 06:55:00;;;;;;;12.60;3.00;;;;;;;13.45;57.79;98739.84;5129189;28;20194;-76
2021/12/01 06:57:25;;;;;;;20.93;2.93;;;;;;;13.37;56.96;98729.00;5116972;28;20251;-76
2021/12/01 06:59:51;;;;;;;17.83;2.67;;;;;;;12.47;58.72;98718.91;5099038;28;20222;-76
2021/12/01 07:02:17;;;;;;;16.30;2.20;;;;;;;12.23;59.07;98707.81;5116057;28;20180;-76
2021/12/01 07:04:43;;;;;;;11.50;2.07;;;;;;;12.49;58.98;98712.41;5098859;28;20172;-76
2021/12/01 07:07:08;;;;;;;11.53;2.27;;;;;;;11.48;60.22;98710.16;5098739;28;20177;-77
2021/12/01 07:09:34;;;;;;;11.60;1.97;;;;;;;11.94;59.84;98695.31;5115678;28;20207;-75
2021/12/01 07:11:59;;;;;;;19.17;2.87;;;;;;;12.26;59.20;98678.09;5117535;28;20175;-76
2021/12/01 07:14:24;;;;;;;11.87;1.90;;;;;;;12.74;58.44;98686.84;5099207;28;20197;-76
2021/12/01 07:16:50;;;;;;;9.10;1.83;;;;;;;11.16;60.71;98677.50;5099802;28;20196;-77
2021/12/01 07:19:15;;;;;;;12.10;2.00;;;;;;;12.80;59.01;98677.38;5117595;28;20219;-78
2021/12/01 07:21:40;;;;;;;9.33;2.40;;;;;;;12.15;58.55;98665.72;5101327;28;20186;-78
2021/12/01 07:24:06;;;;;;;8.73;2.30;;;;;;;11.35;59.99;98666.84;5119714;28;20165;-77
2021/12/01 07:26:32;;;;;;;6.87;2.27;;;;;;;11.72;60.60;98632.28;5101805;28;20203;-77
2021/12/01 07:28:57;;;;;;;8.87;1.93;;;;;;;12.13;59.00;98614.22;5117192;28;20266;-75
2021/12/01 07:31:22;;;;;;;10.53;2.40;;;;;;;11.77;60.28;98607.78;5099611;28;20205;-76
2021/12/01 07:33:48;;;;;;;5.13;2.27;;;;;;;11.64;61.22;98610.75;5117247;28;20195;-77
2021/12/01 07:36:15;;;;;;;6.40;2.10;;;;;;;11.48;61.01;98602.44;5119007;28;20198;-77
2021/12/01 07:38:40;;;;;;;17.83;3.60;;;;;;;12.11;61.17;98584.13;5098963;28;20174;-75
2021/12/01 07:41:05;;;;;;;18.17;2.93;;;;;;;13.00;58.60;98576.38;5118833;28;20190;-76
2021/12/01 07:43:30;;;;;;;8.33;2.57;;;;;;;12.08;59.16;98558.53;5118189;28;20569;-76
2021/12/01 07:45:56;;;;;;;12.57;2.90;;;;;;;13.16;58.54;98557.81;5099626;28;20206;-78
2021/12/01 07:48:21;;;;;;;9.20;2.30;;;;;;;12.61;60.49;98557.84;5101028;28;20178;-76
2021/12/01 07:50:46;;;;;;;10.13;2.57;;;;;;;12.67;58.55;98530.53;5099505;28;20174;-76
2021/12/01 07:53:12;;;;;;;9.33;2.63;;;;;;;12.72;59.01;98528.25;5116476;28;20247;-76
2021/12/01 07:55:39;;;;;;;12.73;2.27;;;;;;;11.95;60.58;98520.59;5098784;28;20205;-75
2021/12/01 07:58:04;;;;;;;8.30;2.00;;;;;;;12.41;60.59;98518.84;5115055;28;20170;-77
2021/12/01 08:00:30;;;;;;;6.80;1.90;;;;;;;11.99;60.57;98500.59;5114751;28;20175;-76
2021/12/01 08:02:55;;;;;;;6.83;2.63;;;;;;;13.11;59.32;98510.06;5114975;28;20166;-76
2021/12/01 08:05:20;;;;;;;5.07;2.07;;;;;;;12.97;59.72;98491.00;5097236;28;20689;-76
2021/12/01 08:07:46;;;;;;;9.40;2.50;;;;;;;13.23;58.11;98486.59;5114628;28;20171;-75
2021/12/01 08:10:11;;;;;;;8.00;2.13;;;;;;;13.22;58.31;98481.38;5115104;28;20176;-76
2021/12/01 08:12:36;;;;;;;5.03;2.03;;;;;;;12.51;61.48;98487.50;5115042;28;20665;-73
2021/12/01 08:15:03;;;;;;;4.57;2.00;;;;;;;13.11;59.86;98502.03;5114634;28;20562;-75
2021/12/01 08:17:28;;;;;;;5.87;2.20;;;;;;;12.34;60.81;98461.59;5115556;28;20209;-77
2021/12/01 08:19:54;;;;;;;7.03;2.20;;;;;;;13.00;58.97;98442.50;5114471;28;20178;-75
2021/12/01 08:22:19;;;;;;;3.00;2.07;;;;;;;13.63;68.71;98478.03;5097321;28;20228;-73
2021/12/01 08:24:44;;;;;;;3.13;2.00;;;;;;;12.33;86.89;98508.88;5115030;28;20172;-75
2021/12/01 08:27:09;;;;;;;4.80;1.83;;;;;;;14.96;59.82;98427.25;5114184;28;20597;-76
2021/12/01 08:29:35;;;;;;;4.20;2.10;;;;;;;12.96;59.58;98441.97;5114069;28;20179;-75
2021/12/01 08:32:00;;;;;;;7.17;2.20;;;;;;;14.92;63.80;98406.25;5097577;28;20184;-75
2021/12/01 08:34:25;;;;;;;3.20;1.90;;;;;;;15.28;57.76;98425.56;5096733;28;20563;-75
2021/12/01 08:36:51;;;;;;;4.07;1.90;;;;;;;14.49;57.09;98410.88;5114110;28;20205;-73
2021/12/01 08:39:17;;;;;;;3.13;1.63;;;;;;;13.91;57.74;98426.91;5096781;28;20673;-73
2021/12/01 08:41:42;;;;;;;3.73;1.80;;;;;;;14.43;56.41;98408.84;5113935;28;20211;-74
2021/12/01 08:44:08;;;;;;;3.70;1.60;;;;;;;16.00;54.10;98407.63;5113800;28;20554;-73
2021/12/01 08:46:34;;;;;;;2.00;1.43;;;;;;;16.01;54.07;98392.31;5096551;28;20200;-75
2021/12/01 08:48:59;;;;;;;2.20;1.50;;;;;;;15.41;54.71;98380.19;5113902;28;20169;-73
2021/12/01 08:51:26;;;;;;;1.50;1.40;;;;;;;15.60;55.19;98379.81;5113519;28;20237;-74
2021/12/01 08:53:51;;;;;;;3.53;1.30;;;;;;;16.02;54.26;98383.22;5113515;28;20195;-74
2021/12/01 08:56:17;;;;;;;2.33;1.23;;;;;;;15.38;56.50;98363.56;5115251;28;20708;-75
2021/12/01 08:58:42;;;;;;;1.80;1.20;;;;;;;14.97;56.68;98369.00;5114952;28;20191;-75
2021/12/01 09:01:07;;;;;;;1.50;1.27;;;;;;;15.13;55.85;98347.47;5113873;28;20543;-75
2021/12/01 09:03:33;;;;;;;3.30;1.47;;;;;;;16.17;54.28;98354.56;5096780;28;20263;-75
2021/12/01 09:05:58;;;;;;;1.87;1.37;;;;;;;16.69;53.59;98353.91;5113679;28;20558;-75
2021/12/01 09:08:24;;;;;;;1.40;1.10;;;;;;;15.55;55.73;98373.25;5114926;28;20167;-72
2021/12/01 09:10:52;;;;;;;2.50;1.30;;;;;;;16.31;54.09;98356.47;5096373;28;20249;-74
2021/12/01 09:13:18;;;;;;;2.93;1.43;;;;;;;16.76;54.61;98352.19;5113336;28;20196;-74
2021/12/01 09:15:44;;;;;;;2.13;1.30;;;;;;;15.00;65.40;98348.00;5096063;28;20195;-74
2021/12/01 09:18:09;;;;;;;1.97;1.47;;;;;;;16.81;54.66;98347.09;5113182;28;20524;-73
2021/12/01 09:20:35;;;;;;;1.57;1.47;;;;;;;16.75;56.57;98342.44;5113360;28;20651;-74
2021/12/01 09:23:01;;;;;;;2.37;1.70;;;;;;;16.13;58.38;98351.38;5096754;28;20179;-75
2021/12/01 09:25:26;;;;;;;2.43;1.37;;;;;;;16.10;55.10;98335.59;5113364;28;20583;-75
2021/12/01 09:27:52;;;;;;;2.50;1.90;;;;;;;15.24;56.44;98311.38;5113220;28;20283;-75
2021/12/01 09:30:18;;;;;;;2.30;2.10;;;;;;;17.55;53.55;98331.06;5096221;28;20180;-74
2021/12/01 09:32:44;;;;;;;2.90;2.07;;;;;;;17.60;52.09;98301.69;5095772;28;20181;-76
2021/12/01 09:35:11;;;;;;;4.50;2.00;;;;;;;16.14;55.10;98295.72;5095826;28;20286;-73
2021/12/01 09:37:36;;;;;;;2.43;2.03;;;;;;;17.71;52.72;98304.75;5096237;28;20267;-74
2021/12/01 09:40:05;;;;;;;3.37;2.40;;;;;;;17.36;53.65;98300.91;5113147;28;20267;-75
2021/12/01 09:42:31;;;;;;;3.17;2.50;;;;;;;18.08;53.68;98287.56;5114044;28;20264;-76
2021/12/01 09:44:56;;;;;;;2.93;2.67;;;;;;;17.99;53.38;98279.78;5114942;28;20721;-74
2021/12/01 09:47:22;;;;;;;3.63;2.50;;;;;;;17.15;53.66;98269.31;5096420;28;20247;-75
2021/12/01 09:49:50;;;;;;;4.17;3.10;;;;;;;16.66;53.53;98273.47;5113504;28;20184;-75
2021/12/01 09:52:15;;;;;;;4.30;3.67;;;;;;;17.09;54.38;98263.81;5097831;28;20186;-76
2021/12/01 09:54:41;;;;;;;5.17;3.20;;;;;;;17.62;53.62;98270.78;5114425;28;20197;-74
2021/12/01 09:57:07;;;;;;;4.30;3.63;;;;;;;18.37;52.92;98266.91;5116698;28;20191;-75
2021/12/01 09:59:33;;;;;;;5.10;4.40;;;;;;;18.25;52.70;98250.41;5117255;28;20196;-74
2021/12/01 10:01:58;;;;;;;4.33;3.83;;;;;;;17.75;53.52;98251.25;5101967;28;20181;-74
2021/12/01 10:04:25;;;;;;;4.27;3.87;;;;;;;18.69;51.65;98246.66;5101027;28;20232;-74
2021/12/01 10:06:50;;;;;;;4.43;3.80;;;;;;;16.50;78.53;98261.81;5105890;28;20197;-74
2021/12/01 10:09:18;;;;;;;4.20;3.80;;;;;;;19.05;55.72;98220.34;5120192;28;20184;-74
2021/12/01 10:11:43;;;;;;;4.37;3.97;;;;;;;18.83;53.45;98209.78;5119748;28;20170;-76
2021/12/01 10:14:16;;;;;;;4.40;3.83;;;;;;;19.00;52.67;98198.47;5106284;28;20173;-76
2021/12/01 10:16:43;;;;;;;9.33;3.90;;;;;;;18.77;53.41;98195.19;5121940;28;20225;-74
2021/12/01 10:19:10;;;;;;;4.87;3.43;;;;;;;17.66;66.58;98220.84;5103891;28;20169;-75
2021/12/01 10:21:39;;;;;;;4.20;3.80;;;;;;;18.69;53.99;98185.38;5120673;28;20231;-74
2021/12/01 10:24:11;;;;;;;4.13;3.73;;;;;;;19.84;51.59;98181.19;5102698;28;20193;-75
2021/12/01 10:26:42;;;;;;;3.80;3.37;;;;;;;18.13;97.20;98228.44;5099714;28;20677;-75
2021/12/01 10:29:14;;;;;;;3.87;3.47;;;;;;;18.94;56.02;98172.22;5116763;28;20158;-77
2021/12/01 10:31:54;;;;;;;3.93;3.03;;;;;;;18.90;58.49;98153.91;5100698;28;20235;-75
2021/12/01 10:34:21;;;;;;;3.27;2.97;;;;;;;19.25;55.96;98152.84;5116870;28;20514;-74
2021/12/01 10:36:50;;;;;;;3.17;2.87;;;;;;;18.56;54.79;98155.50;5117980;28;20215;-74
2021/12/01 10:39:15;;;;;;;2.70;2.50;;;;;;;19.23;53.62;98154.06;5116450;28;20178;-74
2021/12/01 10:41:43;;;;;;;3.63;2.50;;;;;;;19.28;54.16;98144.31;5117786;28;20269;-74
2021/12/01 10:44:10;;;;;;;3.17;2.60;;;;;;;18.40;55.09;98137.75;5117265;28;20516;-73
2021/12/01 10:46:47;;;;;;;2.40;2.13;;;;;;;20.04;52.34;98129.78;5116862;28;20181;-74
2021/12/01 10:49:13;;;;;;;2.40;2.20;;;;;;;19.09;57.68;98111.81;5099931;28;20169;-75
2021/12/01 10:51:40;;;;;;;2.00;1.77;;;;;;;19.48;58.39;98121.94;5113301;28;20162;-75
2021/12/01 10:54:14;;;;;;;2.47;2.10;;;;;;;19.68;53.35;98107.44;5122077;28;20173;-74
2021/12/01 10:56:39;;;;;;;1.80;1.70;;;;;;;19.91;52.45;98096.25;5137688;28;20219;-73
2021/12/01 10:59:10;;;;;;;2.17;1.60;;;;;;;19.36;55.02;98095.50;5137760;28;20237;-74
2021/12/01 11:01:37;;;;;;;1.73;1.60;;;;;;;19.13;70.87;98118.47;5119522;28;20232;-75
2021/12/01 11:04:02;;;;;;;4.40;2.00;;;;;;;19.60;70.72;98102.22;5117798;28;20208;-74
2021/12/01 11:06:33;;;;;;;1.70;1.60;;;;;;;18.32;88.96;98105.50;5116201;28;20674;-75
2021/12/01 11:08:58;;;;;;;1.50;1.40;;;;;;;18.70;56.71;98070.03;5115890;28;20166;-76
2021/12/01 11:11:42;;;;;;;2.07;1.63;;;;;;;20.13;54.56;98087.94;5116428;28;20173;-75
2021/12/01 11:14:14;;;;;;;1.63;1.37;;;;;;;19.88;54.08;98102.06;5118451;28;20166;-75
2021/12/01 11:16:40;;;;;;;3.03;2.00;;;;;;;19.54;54.21;98084.13;5115619;28;20200;-75
2021/12/01 11:19:06;;;;;;;2.30;1.63;;;;;;;19.20;54.41;98076.06;5116052;28;20177;-74
2021/12/01 11:21:31;;;;;;;1.70;1.60;;;;;;;19.42;54.44;98084.88;5099298;28;20565;-75
2021/12/01 11:24:00;;;;;;;1.77;1.60;;;;;;;19.41;62.68;98083.22;5115809;28;20671;-74
2021/12/01 11:26:29;;;;;;;3.03;1.73;;;;;;;19.82;54.19;98064.19;5116064;28;20186;-74
2021/12/01 11:29:00;;;;;;;3.57;1.73;;;;;;;18.97;55.46;98050.22;5116117;28;20627;-74
2021/12/01 11:31:28;;;;;;;2.37;1.80;;;;;;;18.49;56.32;98052.00;5098849;28;20176;-75